Time;durP1;ratioP1;P1;durP2;ratioP2;P2;SDS_P1;SDS_P2;PMS_P1;PMS_P2;Temp;Humidity;BMP_temperature;BMP_pressure;BME280_temperature;BME280_humidity;BME280_pressure;Samples;Min_cycle;Max_cycle;Signal;HPM_P1;HPM_P2
2021/01/01 00:01:30;;;;;;;47.75;26.45;;;;;;;0.24;65.14;94157.13;4953904;28;20043;-68
2021/01/01 00:03:56;;;;;;;50.15;27.35;;;;;;;0.10;64.42;94150.84;4954097;28;20035;-67
2021/01/01 00:06:21;;;;;;;44.78;24.48;;;;;;;-0.13;64.53;94115.59;4970950;28;20027;-68
2021/01/01 00:08:46;;;;;;;43.03;24.10;;;;;;;0.02;64.93;94154.78;4953616;28;20448;-67
2021/01/01 00:11:16;;;;;;;44.35;21.42;;;;;;;-0.11;65.23;94139.63;4952796;28;20047;-68
2021/01/01 00:13:41;;;;;;;37.15;21.50;;;;;;;-0.05;65.69;94154.28;4952698;28;20043;-68
2021/01/01 00:16:10;;;;;;;41.45;23.27;;;;;;;0.00;65.29;94175.19;4954069;28;20031;-68
2021/01/01 00:18:35;;;;;;;33.53;20.70;;;;;;;-0.10;65.23;94167.34;4955604;28;20058;-67
2021/01/01 00:21:00;;;;;;;40.78;21.17;;;;;;;-0.29;65.52;94148.78;4953872;28;20063;-67
2021/01/01 00:23:25;;;;;;;31.50;17.92;;;;;;;-0.16;65.44;94171.75;4953719;28;20082;-67
2021/01/01 00:25:51;;;;;;;33.90;18.35;;;;;;;-0.29;66.06;94143.53;4953749;28;20063;-68
2021/01/01 00:28:16;;;;;;;31.55;18.00;;;;;;;-0.37;66.08;94131.75;4952874;28;20101;-67
2021/01/01 00:30:41;;;;;;;29.13;16.90;;;;;;;-0.30;66.10;94148.00;4955695;28;20031;-67
2021/01/01 00:33:07;;;;;;;30.98;17.15;;;;;;;-0.24;65.91;94158.44;4953204;28;20054;-68
2021/01/01 00:35:32;;;;;;;28.77;16.88;;;;;;;-0.26;66.31;94156.06;4953590;28;20082;-67
2021/01/01 00:37:57;;;;;;;28.60;17.27;;;;;;;-0.23;66.39;94158.19;4953215;28;20090;-74
2021/01/01 00:40:23;;;;;;;23.70;14.77;;;;;;;-0.17;66.53;94162.34;4951778;29;20039;-66
2021/01/01 00:42:48;;;;;;;25.02;14.90;;;;;;;-0.01;66.38;94169.16;4970111;28;20028;-67
2021/01/01 00:45:13;;;;;;;21.73;13.77;;;;;;;-0.04;66.14;94142.78;4953284;28;20138;-68
2021/01/01 00:47:38;;;;;;;22.08;15.10;;;;;;;0.05;65.52;94151.63;4966716;28;20040;-67
2021/01/01 00:50:05;;;;;;;23.58;13.55;;;;;;;0.11;65.80;94153.22;4951844;28;20062;-66
2021/01/01 00:52:31;;;;;;;22.15;14.75;;;;;;;0.25;65.20;94169.94;4950573;28;20039;-66
2021/01/01 00:54:56;;;;;;;22.48;13.60;;;;;;;-0.16;65.20;94137.00;4951788;28;20155;-66
2021/01/01 00:57:21;;;;;;;18.85;13.75;;;;;;;0.05;65.35;94137.78;4954063;28;20051;-67
2021/01/01 00:59:47;;;;;;;23.30;13.85;;;;;;;0.04;65.20;94131.00;4948857;28;20039;-66
2021/01/01 01:02:12;;;;;;;18.70;13.57;;;;;;;0.16;65.28;94147.22;4951398;28;20039;-65
2021/01/01 01:04:37;;;;;;;21.15;12.73;;;;;;;0.15;64.98;94153.47;4952040;28;20047;-64
2021/01/01 01:07:03;;;;;;;16.63;11.23;;;;;;;0.05;65.09;94145.63;4951692;28;20038;-65
2021/01/01 01:09:28;;;;;;;17.25;11.35;;;;;;;-0.11;64.82;94123.94;4952298;28;20027;-64
2021/01/01 01:11:54;;;;;;;14.27;11.35;;;;;;;-0.03;65.00;94141.72;4950083;28;20052;-65
2021/01/01 01:14:19;;;;;;;16.67;11.93;;;;;;;-0.11;64.88;94139.63;4950142;28;20116;-65
2021/01/01 01:16:45;;;;;;;22.95;13.48;;;;;;;-0.20;64.92;94136.75;4951731;28;20201;-66
2021/01/01 01:19:10;;;;;;;24.13;12.90;;;;;;;-0.10;65.12;94159.50;4949935;28;20537;-67
2021/01/01 01:21:35;;;;;;;22.17;13.90;;;;;;;-0.06;65.61;94157.91;4953194;28;20035;-66
2021/01/01 01:24:01;;;;;;;18.10;12.32;;;;;;;-0.41;65.48;94106.41;4951364;28;20126;-66
2021/01/01 01:26:26;;;;;;;14.93;11.18;;;;;;;-0.07;65.49;94148.50;4951685;28;20106;-66
2021/01/01 01:28:51;;;;;;;19.60;12.15;;;;;;;0.02;65.17;94162.63;4943798;28;20168;-68
2021/01/01 01:31:17;;;;;;;20.70;12.25;;;;;;;0.07;65.30;94156.63;4935157;28;20175;-65
2021/01/01 01:33:44;;;;;;;21.98;12.68;;;;;;;0.15;64.95;94158.69;4953515;28;20397;-66
2021/01/01 01:36:09;;;;;;;17.13;11.13;;;;;;;0.02;65.01;94118.19;4951581;28;20608;-66
2021/01/01 01:38:35;;;;;;;19.00;11.43;;;;;;;0.33;64.68;94155.56;4951227;28;20069;-66
2021/01/01 01:41:00;;;;;;;17.88;11.35;;;;;;;0.34;64.43;94136.19;4951469;28;20051;-66
2021/01/01 01:43:26;;;;;;;16.25;10.60;;;;;;;0.35;64.40;94119.44;4951365;28;20507;-66
2021/01/01 01:45:54;;;;;;;13.38;9.52;;;;;;;0.62;64.00;94145.31;4953284;28;20081;-66
2021/01/01 01:48:24;;;;;;;17.25;10.48;;;;;;;0.71;63.97;94142.91;4951002;28;20164;-65
2021/01/01 01:50:50;;;;;;;14.63;9.15;;;;;;;0.64;63.49;94121.50;4951002;28;20058;-66
2021/01/01 01:53:16;;;;;;;14.52;9.90;;;;;;;0.88;62.80;94159.13;4950912;28;20126;-65
2021/01/01 01:55:42;;;;;;;12.52;9.18;;;;;;;0.96;62.50;94142.84;4951375;28;20500;-67
2021/01/01 01:58:07;;;;;;;13.07;9.73;;;;;;;1.06;62.19;94130.75;4950965;28;20027;-68
2021/01/01 02:03:18;;;;;;;16.55;11.68;;;;;;;1.34;61.81;94153.69;4951009;28;20090;-67
2021/01/01 02:05:43;;;;;;;13.85;10.50;;;;;;;1.17;60.75;94133.06;4949766;29;20075;-67
2021/01/01 02:08:09;;;;;;;14.68;9.75;;;;;;;0.78;60.81;94136.38;4950967;28;20553;-67
2021/01/01 02:10:34;;;;;;;18.67;10.73;;;;;;;1.05;60.90;94129.97;4950826;28;20062;-67
2021/01/01 02:13:00;;;;;;;15.57;10.30;;;;;;;1.13;60.83;94134.66;4950696;28;20041;-67
2021/01/01 02:15:30;;;;;;;13.20;10.20;;;;;;;1.15;60.70;94134.38;4951533;29;20023;-67
2021/01/01 02:17:57;;;;;;;16.67;10.60;;;;;;;1.15;60.83;94132.56;4951032;28;20090;-67
2021/01/01 02:20:23;;;;;;;12.75;9.75;;;;;;;1.16;60.64;94130.72;4949681;28;20090;-67
2021/01/01 02:22:49;;;;;;;15.00;10.95;;;;;;;1.16;61.16;94134.09;4951025;28;20536;-66
2021/01/01 02:25:14;;;;;;;15.15;10.43;;;;;;;1.21;60.65;94154.25;4950707;28;20043;-67
2021/01/01 02:27:40;;;;;;;14.65;10.43;;;;;;;1.13;60.74;94146.97;4953001;28;20074;-67
2021/01/01 02:30:06;;;;;;;13.52;10.80;;;;;;;1.05;60.92;94140.44;4950874;28;20271;-67
2021/01/01 02:32:32;;;;;;;9.95;8.93;;;;;;;1.04;60.91;94136.28;4950521;28;20470;-67
2021/01/01 02:34:58;;;;;;;16.13;10.68;;;;;;;1.13;60.91;94139.91;4950292;28;20066;-67
2021/01/01 02:37:23;;;;;;;16.17;10.50;;;;;;;1.13;60.65;94136.50;4950736;28;20473;-67
2021/01/01 02:39:48;;;;;;;14.70;10.00;;;;;;;1.16;60.88;94141.97;4952500;28;20039;-67
2021/01/01 02:42:17;;;;;;;13.93;9.80;;;;;;;1.18;60.41;94144.34;4950380;28;20055;-66
2021/01/01 02:44:43;;;;;;;11.90;9.18;;;;;;;1.09;60.13;94122.38;4950829;28;20047;-70
2021/01/01 02:47:08;;;;;;;15.25;9.88;;;;;;;1.26;59.92;94141.13;4949474;28;20113;-68
2021/01/01 02:49:34;;;;;;;16.58;10.13;;;;;;;1.22;60.17;94119.16;4950275;28;20519;-67
2021/01/01 02:52:00;;;;;;;12.40;9.15;;;;;;;1.34;60.04;94132.72;4950253;28;20039;-67
2021/01/01 02:54:26;;;;;;;12.60;9.40;;;;;;;1.40;60.10;94142.13;4952629;28;20019;-67
2021/01/01 02:56:51;;;;;;;11.93;9.52;;;;;;;1.45;59.90;94139.47;4950553;28;20062;-67
2021/01/01 02:59:17;;;;;;;12.18;8.52;;;;;;;1.36;59.14;94127.22;4950105;28;20059;-67
2021/01/01 03:01:42;;;;;;;12.98;9.13;;;;;;;1.38;59.17;94110.16;4950356;28;20040;-68
2021/01/01 03:04:09;;;;;;;12.75;9.50;;;;;;;1.47;59.17;94120.84;4950440;28;20143;-67
2021/01/01 03:06:34;;;;;;;10.68;8.20;;;;;;;1.60;58.92;94129.97;4952269;29;20043;-68
2021/01/01 03:08:59;;;;;;;14.05;9.30;;;;;;;1.42;59.05;94103.31;4950178;28;20032;-69
2021/01/01 03:11:24;;;;;;;12.00;8.40;;;;;;;1.52;58.59;94118.97;4949976;28;20724;-67
2021/01/01 03:13:50;;;;;;;11.95;9.10;;;;;;;1.48;59.00;94107.47;4950282;28;20039;-67
2021/01/01 03:16:15;;;;;;;14.15;9.52;;;;;;;1.69;58.89;94129.13;4950302;28;20124;-67
2021/01/01 03:18:41;;;;;;;16.77;9.50;;;;;;;1.69;58.85;94120.44;4951850;28;20031;-68
2021/01/01 03:21:06;;;;;;;12.15;9.00;;;;;;;1.70;58.97;94125.44;4950298;28;20081;-67
2021/01/01 03:23:31;;;;;;;14.00;9.00;;;;;;;1.83;58.40;94142.38;4950080;28;20043;-67
2021/01/01 03:25:57;;;;;;;12.55;9.32;;;;;;;1.81;58.32;94136.63;4948217;28;20083;-67
2021/01/01 03:28:22;;;;;;;13.32;9.07;;;;;;;1.92;58.39;94137.34;4948933;28;20043;-68
2021/01/01 03:30:47;;;;;;;12.63;9.02;;;;;;;1.81;58.26;94120.91;4950583;28;20054;-67
2021/01/01 03:33:13;;;;;;;11.20;9.05;;;;;;;1.67;57.84;94127.81;4949957;28;20047;-67
2021/01/01 03:35:39;;;;;;;12.77;9.75;;;;;;;1.75;58.11;94130.63;4950068;28;20103;-68
2021/01/01 03:38:05;;;;;;;13.73;8.98;;;;;;;1.82;58.29;94120.63;4949997;28;20043;-67
2021/01/01 03:40:30;;;;;;;13.50;9.73;;;;;;;1.94;57.66;94128.13;4949941;28;20609;-69
2021/01/01 03:42:55;;;;;;;12.13;8.95;;;;;;;1.93;57.87;94096.94;4950121;28;20118;-64
2021/01/01 03:45:21;;;;;;;14.02;9.57;;;;;;;1.96;57.72;94107.66;4952424;28;20505;-68
2021/01/01 03:47:46;;;;;;;12.55;8.60;;;;;;;1.88;57.90;94110.09;4953493;28;20040;-68
2021/01/01 03:50:11;;;;;;;12.05;9.43;;;;;;;1.72;58.12;94099.72;4953291;28;20055;-68
2021/01/01 03:52:37;;;;;;;12.90;9.90;;;;;;;1.67;57.80;94117.31;4953228;28;20058;-67
2021/01/01 03:55:03;;;;;;;14.90;9.85;;;;;;;1.42;58.27;94103.31;4953512;28;20079;-67
2021/01/01 03:57:28;;;;;;;12.00;8.65;;;;;;;0.88;58.43;94051.78;4955119;28;20488;-67
2021/01/01 03:59:54;;;;;;;15.25;8.85;;;;;;;1.13;58.68;94126.03;4953084;28;20047;-67
2021/01/01 04:02:19;;;;;;;14.27;8.70;;;;;;;0.47;60.32;94113.94;4951808;28;20059;-68
2021/01/01 04:04:44;;;;;;;12.45;8.93;;;;;;;0.31;61.27;94136.75;4953306;28;20039;-67
2021/01/01 04:07:09;;;;;;;10.73;8.65;;;;;;;-0.05;62.78;94135.97;4951792;28;20047;-66
2021/01/01 04:09:35;;;;;;;13.70;9.07;;;;;;;-0.39;64.08;94123.41;4954669;29;20027;-67
2021/01/01 04:12:00;;;;;;;15.52;10.15;;;;;;;-0.68;65.50;94128.31;4952663;28;20043;-67
2021/01/01 04:14:26;;;;;;;10.57;8.18;;;;;;;-1.07;65.74;94078.38;4951797;29;20515;-67
2021/01/01 04:16:51;;;;;;;8.65;6.85;;;;;;;-0.71;65.53;94147.13;4953117;28;20143;-67
2021/01/01 04:19:16;;;;;;;10.27;7.72;;;;;;;-0.37;64.39;94142.22;4952752;28;20050;-66
2021/01/01 04:21:46;;;;;;;11.07;7.13;;;;;;;-0.31;63.59;94135.16;4954756;28;20030;-67
2021/01/01 04:24:13;;;;;;;8.07;6.28;;;;;;;-0.22;63.39;94138.84;4952804;28;20054;-66
2021/01/01 04:26:39;;;;;;;9.32;6.43;;;;;;;0.01;62.31;94131.53;4953010;28;20051;-67
2021/01/01 04:29:05;;;;;;;8.10;6.13;;;;;;;-0.32;62.93;94094.41;4952510;28;20129;-68
2021/01/01 04:31:33;;;;;;;9.65;6.25;;;;;;;-0.17;62.28;94122.38;4952600;28;20101;-68
2021/01/01 04:33:58;;;;;;;9.90;7.07;;;;;;;-0.03;62.19;94142.50;4952563;28;20469;-68
2021/01/01 04:36:23;;;;;;;9.90;6.70;;;;;;;-0.29;63.16;94148.78;4954499;28;20082;-67
2021/01/01 04:38:49;;;;;;;11.35;6.57;;;;;;;-0.79;64.26;94108.47;4952347;28;20075;-67
2021/01/01 04:41:14;;;;;;;7.45;6.57;;;;;;;-0.63;64.79;94149.22;4952476;28;20090;-68
2021/01/01 04:43:40;;;;;;;8.88;7.25;;;;;;;-0.57;65.20;94148.19;4952607;28;20050;-67
2021/01/01 04:46:05;;;;;;;10.52;7.07;;;;;;;-0.48;64.76;94134.63;4951186;28;20031;-68
2021/01/01 04:48:31;;;;;;;10.05;7.53;;;;;;;-0.31;63.57;94149.03;4952630;28;20499;-68
2021/01/01 04:50:56;;;;;;;11.75;7.75;;;;;;;-0.16;63.98;94142.22;4951078;28;20122;-68
2021/01/01 04:53:24;;;;;;;13.57;8.75;;;;;;;-0.06;63.55;94140.41;4966845;28;20658;-68
2021/01/01 04:55:50;;;;;;;12.80;8.15;;;;;;;0.18;63.17;94152.97;4952224;28;20090;-67
2021/01/01 04:58:16;;;;;;;13.18;9.10;;;;;;;0.22;63.00;94141.72;4950219;28;20039;-67
2021/01/01 05:00:41;;;;;;;18.10;10.23;;;;;;;0.27;63.49;94142.75;4954062;28;20086;-67
2021/01/01 05:03:07;;;;;;;16.40;9.95;;;;;;;0.41;62.89;94131.50;4951972;28;20035;-67
2021/01/01 05:05:32;;;;;;;14.02;10.18;;;;;;;0.64;62.78;94145.03;4952116;28;20075;-67
2021/01/01 05:07:57;;;;;;;12.45;9.35;;;;;;;0.80;62.22;94149.19;4952013;28;20047;-67
2021/01/01 05:10:23;;;;;;;14.82;9.98;;;;;;;0.88;62.41;94143.41;4951881;28;20135;-67
2021/01/01 05:12:49;;;;;;;16.67;11.50;;;;;;;0.88;62.06;94135.56;4953596;28;20409;-67
2021/01/01 05:15:35;;;;;;;13.90;9.23;;;;;;;1.10;61.78;94147.50;4950766;29;20079;-67
2021/01/01 05:18:01;;;;;;;15.90;10.98;;;;;;;1.18;61.72;94147.75;4951568;28;20050;-67
2021/01/01 05:20:27;;;;;;;15.95;11.02;;;;;;;1.26;61.40;94162.09;4983900;23;20058;-64
2021/01/01 05:22:57;;;;;;;14.23;10.88;;;;;;;1.14;61.18;94145.91;4990158;28;20057;-64
2021/01/01 05:25:24;;;;;;;17.13;11.48;;;;;;;1.14;61.29;94153.78;4989062;28;20128;-64
2021/01/01 05:27:53;;;;;;;16.65;11.10;;;;;;;1.03;60.94;94140.72;4992014;28;20439;-64
2021/01/01 05:30:29;;;;;;;22.10;12.43;;;;;;;1.16;61.36;94159.53;4990009;28;20038;-64
2021/01/01 05:32:54;;;;;;;14.48;10.60;;;;;;;1.01;61.33;94145.44;4989808;28;20046;-63
2021/01/01 05:35:30;;;;;;;13.18;10.52;;;;;;;0.91;61.58;94128.97;4988894;28;20073;-64
2021/01/01 05:37:56;;;;;;;14.65;11.63;;;;;;;1.07;61.57;94156.66;4990093;28;20096;-64
2021/01/01 05:40:30;;;;;;;17.75;12.00;;;;;;;1.00;61.43;94162.19;4989892;28;20042;-64
2021/01/01 05:42:56;;;;;;;14.57;11.13;;;;;;;0.93;61.56;94172.19;4991719;28;20102;-63
2021/01/01 05:45:26;;;;;;;18.63;11.70;;;;;;;0.84;62.00;94163.31;4990417;28;20046;-64
2021/01/01 05:48:04;;;;;;;18.70;12.40;;;;;;;0.72;62.12;94168.06;4988578;28;20121;-63
2021/01/01 05:50:30;;;;;;;15.27;11.40;;;;;;;0.63;62.09;94173.03;4989749;28;20047;-63
2021/01/01 05:53:08;;;;;;;18.30;12.13;;;;;;;0.48;62.93;94173.06;4989677;28;20034;-64
2021/01/01 05:55:34;;;;;;;18.35;12.55;;;;;;;0.42;62.58;94174.91;4989943;28;20061;-63
2021/01/01 05:57:59;;;;;;;17.48;12.15;;;;;;;0.36;62.90;94173.34;4989604;28;20034;-63
2021/01/01 06:00:26;;;;;;;18.20;12.20;;;;;;;0.29;62.71;94169.44;4991581;28;20404;-64
2021/01/01 06:02:56;;;;;;;18.60;12.93;;;;;;;0.17;63.59;94173.09;5004615;28;20546;-64
2021/01/01 06:05:25;;;;;;;20.58;13.82;;;;;;;-0.17;65.07;94167.59;4989859;28;20050;-63
2021/01/01 06:07:52;;;;;;;19.95;13.60;;;;;;;-0.30;64.94;94153.22;4989284;28;20547;-63
2021/01/01 06:10:21;;;;;;;17.50;12.48;;;;;;;-0.51;67.33;94177.75;4989049;28;20408;-63
2021/01/01 06:12:51;;;;;;;19.00;13.60;;;;;;;-0.63;66.96;94161.50;4989942;28;20448;-64
2021/01/01 06:15:22;;;;;;;17.52;12.52;;;;;;;-0.47;66.55;94173.56;4989665;28;20035;-63
2021/01/01 06:17:51;;;;;;;23.00;13.57;;;;;;;-0.15;65.89;94207.34;4989720;28;20421;-64
2021/01/01 06:20:21;;;;;;;20.33;13.43;;;;;;;-0.12;65.59;94201.56;4989233;28;20496;-64
2021/01/01 06:23:01;;;;;;;24.00;13.55;;;;;;;-0.27;65.21;94189.25;4989401;28;20046;-64
2021/01/01 06:25:28;;;;;;;18.13;12.50;;;;;;;-0.43;65.33;94173.81;4989378;28;20042;-64
2021/01/01 06:27:54;;;;;;;18.17;12.85;;;;;;;-0.62;66.62;94197.03;5006280;28;20534;-64
2021/01/01 06:30:20;;;;;;;16.65;12.57;;;;;;;-1.15;70.00;94240.66;4989243;28;20042;-63
2021/01/01 06:32:46;;;;;;;19.75;12.98;;;;;;;-1.10;70.48;94238.06;4987772;28;20042;-63
2021/01/01 06:35:15;;;;;;;18.95;12.98;;;;;;;-0.69;68.52;94238.28;4989269;28;20050;-64
2021/01/01 06:37:47;;;;;;;18.83;13.15;;;;;;;-0.76;67.56;94214.22;4989128;28;20057;-63
2021/01/01 06:40:21;;;;;;;21.90;14.20;;;;;;;-0.44;67.84;94250.63;4989057;28;20082;-65
2021/01/01 06:43:12;;;;;;;18.00;12.98;;;;;;;-0.38;67.33;94258.22;4991164;28;20065;-63
2021/01/01 06:45:47;;;;;;;20.63;13.60;;;;;;;-0.46;66.95;94245.69;4985860;28;20096;-63
2021/01/01 06:48:33;;;;;;;18.83;12.40;;;;;;;-0.31;66.86;94260.59;4988969;28;20042;-64
2021/01/01 06:50:59;;;;;;;20.58;12.35;;;;;;;-0.32;67.18;94253.81;4988380;28;20094;-64
2021/01/01 06:53:29;;;;;;;20.15;13.27;;;;;;;-0.37;66.62;94248.56;4988758;28;20085;-63
2021/01/01 06:56:11;;;;;;;20.83;13.48;;;;;;;-0.30;66.29;94267.41;4989065;28;20050;-63
2021/01/01 06:58:37;;;;;;;21.67;13.10;;;;;;;-0.42;66.59;94248.53;4988606;28;20078;-63
2021/01/01 07:01:03;;;;;;;19.60;11.93;;;;;;;-0.34;66.27;94267.13;4988994;28;20424;-64
2021/01/01 07:03:33;;;;;;;21.35;13.38;;;;;;;-0.43;66.06;94257.44;5005588;28;20034;-63
2021/01/01 07:06:02;;;;;;;17.05;12.15;;;;;;;-0.39;66.30;94271.56;4989192;28;20416;-63
2021/01/01 07:08:39;;;;;;;17.52;13.00;;;;;;;-0.38;66.93;94275.72;4988722;28;20038;-63
2021/01/01 07:11:07;;;;;;;27.40;14.38;;;;;;;-0.36;66.30;94289.31;4989011;28;20058;-63
2021/01/01 07:13:56;;;;;;;20.40;13.55;;;;;;;-0.42;66.99;94265.00;4988494;28;20073;-64
2021/01/01 07:16:23;;;;;;;21.20;13.18;;;;;;;-0.40;66.57;94278.63;5003829;28;20476;-64
2021/01/01 07:18:49;;;;;;;19.05;12.35;;;;;;;-0.39;67.02;94285.41;4990559;28;20046;-63
2021/01/01 07:21:16;;;;;;;17.33;12.27;;;;;;;-0.61;66.74;94250.84;4991699;28;20069;-64
2021/01/01 07:23:46;;;;;;;17.92;12.20;;;;;;;-0.39;66.69;94282.00;5007242;28;20038;-65
2021/01/01 07:26:12;;;;;;;16.73;11.90;;;;;;;-0.38;66.66;94279.13;4992548;28;20034;-65
2021/01/01 07:28:39;;;;;;;19.98;12.82;;;;;;;-0.36;66.73;94277.06;4990840;28;20085;-64
2021/01/01 07:31:05;;;;;;;23.30;13.25;;;;;;;-0.36;66.77;94279.69;4992510;28;20081;-64
2021/01/01 07:33:32;;;;;;;18.08;12.15;;;;;;;-0.44;66.55;94256.66;4993901;28;20026;-63
2021/01/01 07:36:00;;;;;;;22.52;12.38;;;;;;;-0.50;66.65;94246.44;4992279;28;20121;-64
2021/01/01 07:38:28;;;;;;;18.75;12.65;;;;;;;-0.42;66.68;94262.38;5016121;28;20042;-64
2021/01/01 07:40:53;;;;;;;15.55;11.35;;;;;;;-0.28;66.33;94286.22;4991027;28;20112;-64
2021/01/01 07:43:20;;;;;;;14.13;10.63;;;;;;;-0.46;66.39;94252.69;4992124;28;20516;-64
2021/01/01 07:45:45;;;;;;;19.80;10.57;;;;;;;-0.65;66.55;94263.63;4994033;28;20044;-64
2021/01/01 07:48:11;;;;;;;13.75;10.60;;;;;;;-0.57;66.12;94260.50;4992072;28;20035;-64
2021/01/01 07:50:37;;;;;;;14.68;9.77;;;;;;;-0.19;65.84;94295.13;4991890;28;20034;-62
2021/01/01 07:53:06;;;;;;;15.07;9.43;;;;;;;-0.13;65.96;94298.56;4991802;28;20067;-62
2021/01/01 07:55:32;;;;;;;10.35;8.93;;;;;;;-0.09;65.61;94308.25;4992100;28;20084;-61
2021/01/01 07:58:05;;;;;;;11.52;9.15;;;;;;;0.07;65.59;94303.84;4991800;28;20030;-61
2021/01/01 08:00:35;;;;;;;11.07;9.10;;;;;;;0.21;64.96;94306.75;4993685;28;20030;-61
2021/01/01 08:03:01;;;;;;;15.20;9.50;;;;;;;0.22;64.51;94293.41;4991523;28;20499;-61
2021/01/01 08:05:27;;;;;;;13.70;8.85;;;;;;;0.30;64.34;94292.09;4991962;28;20045;-63
2021/01/01 08:07:53;;;;;;;10.20;8.55;;;;;;;0.41;63.69;94293.69;5011424;28;20061;-63
2021/01/01 08:10:34;;;;;;;13.65;9.18;;;;;;;0.55;63.97;94316.72;4990475;28;20035;-62
2021/01/01 08:12:59;;;;;;;11.73;8.45;;;;;;;-0.23;63.71;94196.59;4991538;28;20092;-62
2021/01/01 08:15:29;;;;;;;10.23;8.05;;;;;;;0.73;63.56;94305.72;4993605;28;20066;-63
2021/01/01 08:17:54;;;;;;;13.45;8.65;;;;;;;0.65;63.24;94293.94;4991579;28;20373;-63
2021/01/01 08:20:20;;;;;;;13.43;9.23;;;;;;;0.87;62.88;94314.63;4989767;28;20054;-64
2021/01/01 08:22:51;;;;;;;15.50;10.48;;;;;;;0.75;62.64;94283.47;5006219;28;20042;-64
2021/01/01 08:25:17;;;;;;;10.80;8.40;;;;;;;0.86;62.22;94299.16;4990109;28;20057;-63
2021/01/01 08:27:45;;;;;;;14.07;9.07;;;;;;;0.30;62.62;94299.94;4993165;28;20362;-63
2021/01/01 08:30:11;;;;;;;10.98;9.25;;;;;;;0.08;63.81;94292.31;4992152;28;20062;-64
2021/01/01 08:32:39;;;;;;;12.70;8.75;;;;;;;0.70;63.36;94312.25;4991110;28;20121;-63
2021/01/01 08:35:08;;;;;;;11.65;9.10;;;;;;;0.82;62.95;94322.50;4992557;28;20108;-65
2021/01/01 08:37:34;;;;;;;11.75;9.73;;;;;;;0.54;63.32;94315.16;5007301;28;20047;-64
2021/01/01 08:40:10;;;;;;;11.70;8.60;;;;;;;0.21;63.92;94309.34;4992043;28;20030;-63
2021/01/01 08:42:40;;;;;;;9.63;8.30;;;;;;;0.83;63.28;94310.19;5008817;28;20125;-62
2021/01/01 08:45:10;;;;;;;10.75;8.30;;;;;;;1.17;62.40;94323.47;4991998;28;20036;-64
2021/01/01 08:47:48;;;;;;;9.48;8.13;;;;;;;1.11;61.73;94321.94;4992054;28;20041;-64
2021/01/01 08:50:27;;;;;;;12.63;8.70;;;;;;;1.29;61.40;94321.38;4991850;28;20064;-63
2021/01/01 08:53:00;;;;;;;13.90;8.43;;;;;;;0.89;62.28;94330.84;4991831;28;20043;-61
2021/01/01 08:55:27;;;;;;;11.55;9.50;;;;;;;1.18;61.71;94293.63;4992156;28;20054;-62
2021/01/01 08:58:16;;;;;;;11.10;8.88;;;;;;;1.72;60.76;94321.78;4993289;28;20049;-62
2021/01/01 09:00:46;;;;;;;10.60;8.90;;;;;;;1.84;60.68;94303.88;4992270;28;20121;-62
2021/01/01 09:03:13;;;;;;;13.20;9.05;;;;;;;2.31;60.42;94332.25;4991891;28;20061;-62
2021/01/01 09:05:38;;;;;;;12.43;9.38;;;;;;;2.72;59.16;94333.84;5006850;28;20045;-62
2021/01/01 09:08:14;;;;;;;12.45;8.85;;;;;;;3.24;58.61;94333.13;4990429;28;20038;-62
2021/01/01 09:10:44;;;;;;;11.30;8.77;;;;;;;3.51;55.32;94351.00;4991867;28;20044;-63
2021/01/01 09:13:26;;;;;;;9.45;7.97;;;;;;;2.65;56.51;94356.97;4991557;28;20058;-61
2021/01/01 09:16:11;;;;;;;9.68;8.45;;;;;;;2.63;57.89;94330.22;4993689;28;20026;-60
2021/01/01 09:18:37;;;;;;;10.10;8.27;;;;;;;3.25;56.02;94362.81;4991820;28;20045;-61
2021/01/01 09:21:13;;;;;;;10.38;8.65;;;;;;;3.93;56.22;94357.38;4991541;28;20030;-61
2021/01/01 09:23:40;;;;;;;9.25;7.45;;;;;;;4.22;55.28;94359.16;4991694;28;20104;-61
2021/01/01 09:26:06;;;;;;;12.63;8.40;;;;;;;4.63;54.64;94368.09;4991450;28;20149;-61
2021/01/01 09:28:32;;;;;;;11.98;7.80;;;;;;;4.84;53.59;94375.69;4989226;28;20516;-60
2021/01/01 09:30:57;;;;;;;9.73;8.23;;;;;;;4.54;51.98;94346.09;4990310;28;20046;-61
2021/01/01 09:33:23;;;;;;;9.38;7.82;;;;;;;3.70;54.46;94368.72;4992820;28;20108;-61
2021/01/01 09:35:48;;;;;;;10.10;7.53;;;;;;;3.81;54.19;94364.91;4991465;28;20500;-61
2021/01/01 09:38:14;;;;;;;9.88;7.68;;;;;;;3.75;54.74;94364.19;4989766;28;20567;-61
2021/01/01 09:40:39;;;;;;;9.68;7.93;;;;;;;3.35;56.06;94371.41;4991287;28;20086;-64
2021/01/01 09:43:05;;;;;;;9.15;8.02;;;;;;;3.48;56.08;94363.91;4990812;28;20033;-63
2021/01/01 09:45:34;;;;;;;8.57;7.68;;;;;;;4.23;55.71;94381.78;4993186;28;20381;-60
2021/01/01 09:47:59;;;;;;;9.43;8.02;;;;;;;4.77;54.81;94385.81;4991210;28;20551;-63
2021/01/01 09:50:25;;;;;;;8.73;6.57;;;;;;;4.69;53.93;94385.38;4990947;28;20129;-60
2021/01/01 09:52:50;;;;;;;8.60;7.47;;;;;;;4.46;54.44;94393.34;4990759;28;20404;-64
2021/01/01 09:55:15;;;;;;;8.73;7.63;;;;;;;4.53;54.70;94401.69;4991120;28;20038;-63
2021/01/01 09:57:41;;;;;;;7.65;6.85;;;;;;;4.40;55.65;94398.69;4992430;28;20026;-64
2021/01/01 10:00:12;;;;;;;8.18;7.22;;;;;;;4.16;55.63;94390.81;4990735;28;20026;-61
2021/01/01 10:02:38;;;;;;;9.50;7.22;;;;;;;4.39;55.41;94396.31;4990676;28;20373;-65
2021/01/01 10:05:04;;;;;;;8.38;7.20;;;;;;;3.03;59.16;94371.94;4991003;28;20086;-63
2021/01/01 10:07:30;;;;;;;9.77;8.52;;;;;;;3.29;59.44;94395.38;4990924;28;20038;-66
2021/01/01 10:09:56;;;;;;;8.70;7.80;;;;;;;3.38;58.54;94373.47;4989276;28;20411;-65
2021/01/01 10:12:21;;;;;;;8.00;7.20;;;;;;;4.24;57.11;94391.25;4992578;28;20022;-67
2021/01/01 10:14:47;;;;;;;13.07;8.25;;;;;;;4.35;56.73;94395.31;4990824;28;20695;-64
2021/01/01 10:17:12;;;;;;;9.35;7.93;;;;;;;4.50;57.91;94402.25;4990638;28;20096;-65
2021/01/01 10:19:41;;;;;;;11.50;7.88;;;;;;;4.18;57.30;94401.06;4990362;28;20065;-62
2021/01/01 10:22:07;;;;;;;12.32;8.15;;;;;;;3.77;58.89;94413.88;4990428;28;20030;-62
2021/01/01 10:24:33;;;;;;;7.57;6.57;;;;;;;3.45;59.95;94407.31;4992535;28;20030;-61
2021/01/01 10:26:58;;;;;;;8.48;7.35;;;;;;;4.19;58.26;94402.63;4990441;28;20392;-62
2021/01/01 10:29:25;;;;;;;8.95;7.40;;;;;;;3.91;58.79;94383.22;4989844;28;20031;-61
2021/01/01 10:31:50;;;;;;;9.10;7.38;;;;;;;4.04;58.38;94379.88;4990328;28;20050;-61
2021/01/01 10:34:15;;;;;;;7.80;7.03;;;;;;;3.85;58.68;94392.22;4989210;28;20447;-62
2021/01/01 10:36:41;;;;;;;8.07;7.28;;;;;;;4.57;57.80;94366.59;4991109;28;20029;-65
2021/01/01 10:39:08;;;;;;;7.80;6.70;;;;;;;4.32;57.77;94395.91;4990202;28;20578;-62
2021/01/01 10:41:34;;;;;;;8.32;6.90;;;;;;;4.79;57.29;94383.69;4990213;28;20042;-62
2021/01/01 10:43:59;;;;;;;9.77;6.80;;;;;;;4.21;58.00;94374.19;4990547;28;20055;-63
2021/01/01 10:46:25;;;;;;;8.43;7.15;;;;;;;4.36;57.56;94366.09;4990311;28;20082;-62
2021/01/01 10:48:50;;;;;;;9.93;7.10;;;;;;;4.35;57.52;94355.81;4992011;28;20106;-64
2021/01/01 10:51:25;;;;;;;10.50;7.25;;;;;;;5.06;56.54;94331.06;4990082;28;20489;-68
2021/01/01 10:53:51;;;;;;;7.15;6.45;;;;;;;5.99;54.30;94352.94;4990322;28;20518;-60
2021/01/01 10:56:24;;;;;;;6.93;5.93;;;;;;;6.82;53.70;94391.69;4993874;28;20137;-66
2021/01/01 10:58:50;;;;;;;9.73;6.30;;;;;;;6.08;54.68;94345.09;4993675;28;20050;-62
2021/01/01 11:01:20;;;;;;;8.30;6.22;;;;;;;4.86;57.77;94358.56;4994043;28;20077;-65
2021/01/01 11:03:45;;;;;;;6.50;5.88;;;;;;;4.80;58.96;94358.88;4996095;28;20472;-64
2021/01/01 11:06:11;;;;;;;7.20;6.35;;;;;;;5.08;60.05;94367.72;4994133;28;20038;-62
2021/01/01 11:08:38;;;;;;;6.55;5.93;;;;;;;5.24;61.87;94358.47;4992468;28;20558;-62
2021/01/01 11:11:03;;;;;;;6.30;5.53;;;;;;;4.83;62.88;94363.59;4994084;28;20085;-62
2021/01/01 11:13:29;;;;;;;7.15;6.45;;;;;;;4.52;62.81;94331.66;4993706;28;20062;-63
2021/01/01 12:22:05;;;;;;;9.88;8.75;;;;;;;5.31;61.88;94321.97;4994551;28;20041;-62
2021/01/01 12:26:58;;;;;;;10.40;8.13;;;;;;;5.08;62.40;94312.34;4992770;28;20080;-62
2021/01/01 12:29:25;;;;;;;8.98;7.80;;;;;;;4.82;63.72;94317.25;4991706;28;20038;-62
2021/01/01 12:31:50;;;;;;;10.43;7.65;;;;;;;4.79;64.69;94337.03;4992148;28;20065;-62
2021/01/01 12:34:16;;;;;;;9.20;8.13;;;;;;;5.01;63.81;94302.16;4991951;28;20054;-61
2021/01/01 12:36:41;;;;;;;8.55;7.32;;;;;;;5.05;63.65;94305.78;4994360;28;20026;-61
2021/01/01 12:39:06;;;;;;;8.55;7.65;;;;;;;4.22;66.89;94328.34;4992334;28;20442;-61
2021/01/01 12:41:31;;;;;;;11.20;8.43;;;;;;;4.31;67.09;94331.16;4990901;28;20098;-61